sensor_id;sensor_type;location;lat;lon;timestamp;P1;durP1;ratioP1;P2;durP2;ratioP2
72087;SDS011;59961;50.232;8.616;2023-02-15T00:00:54;24.60;;;9.13;;
72087;SDS011;59961;50.232;8.616;2023-02-15T00:03:20;23.43;;;9.07;;
72087;SDS011;59961;50.232;8.616;2023-02-15T00:05:45;28.70;;;9.93;;
72087;SDS011;59961;50.232;8.616;2023-02-15T00:08:10;26.27;;;9.45;;
72087;SDS011;59961;50.232;8.616;2023-02-15T00:10:35;26.13;;;9.13;;
72087;SDS011;59961;50.232;8.616;2023-02-15T00:13:00;26.55;;;10.43;;
72087;SDS011;59961;50.232;8.616;2023-02-15T00:15:26;29.67;;;10.90;;
72087;SDS011;59961;50.232;8.616;2023-02-15T00:17:51;14.00;;;5.87;;
72087;SDS011;59961;50.232;8.616;2023-02-15T00:20:16;9.15;;;4.72;;
72087;SDS011;59961;50.232;8.616;2023-02-15T00:22:41;29.93;;;9.67;;
72087;SDS011;59961;50.232;8.616;2023-02-15T00:25:06;23.07;;;9.80;;
72087;SDS011;59961;50.232;8.616;2023-02-15T00:27:32;23.13;;;9.23;;
72087;SDS011;59961;50.232;8.616;2023-02-15T00:29:57;21.87;;;9.07;;
72087;SDS011;59961;50.232;8.616;2023-02-15T00:32:23;26.55;;;10.57;;
72087;SDS011;59961;50.232;8.616;2023-02-15T00:34:48;26.47;;;10.80;;
72087;SDS011;59961;50.232;8.616;2023-02-15T00:37:13;27.15;;;10.60;;
72087;SDS011;59961;50.232;8.616;2023-02-15T00:39:38;27.40;;;10.65;;
72087;SDS011;59961;50.232;8.616;2023-02-15T00:42:03;27.67;;;10.13;;
72087;SDS011;59961;50.232;8.616;2023-02-15T00:44:28;22.17;;;9.00;;
72087;SDS011;59961;50.232;8.616;2023-02-15T00:46:53;24.70;;;10.20;;
72087;SDS011;59961;50.232;8.616;2023-02-15T00:49:19;13.77;;;5.63;;
72087;SDS011;59961;50.232;8.616;2023-02-15T00:51:44;22.83;;;9.13;;
72087;SDS011;59961;50.232;8.616;2023-02-15T00:54:09;19.40;;;8.48;;
72087;SDS011;59961;50.232;8.616;2023-02-15T00:56:34;23.42;;;8.95;;
72087;SDS011;59961;50.232;8.616;2023-02-15T00:58:59;23.20;;;8.63;;
72087;SDS011;59961;50.232;8.616;2023-02-15T01:01:24;24.75;;;9.93;;
72087;SDS011;59961;50.232;8.616;2023-02-15T01:03:50;20.58;;;8.73;;
72087;SDS011;59961;50.232;8.616;2023-02-15T01:06:16;22.90;;;9.07;;
72087;SDS011;59961;50.232;8.616;2023-02-15T01:08:41;23.87;;;9.47;;
72087;SDS011;59961;50.232;8.616;2023-02-15T01:11:08;19.07;;;7.67;;
72087;SDS011;59961;50.232;8.616;2023-02-15T01:13:33;21.58;;;9.07;;
72087;SDS011;59961;50.232;8.616;2023-02-15T01:15:59;24.23;;;9.20;;
72087;SDS011;59961;50.232;8.616;2023-02-15T01:18:24;25.55;;;9.13;;
72087;SDS011;59961;50.232;8.616;2023-02-15T01:20:49;22.50;;;8.97;;
72087;SDS011;59961;50.232;8.616;2023-02-15T01:23:14;14.10;;;5.90;;
72087;SDS011;59961;50.232;8.616;2023-02-15T01:25:39;13.60;;;6.17;;
72087;SDS011;59961;50.232;8.616;2023-02-15T01:28:05;8.70;;;3.85;;
72087;SDS011;59961;50.232;8.616;2023-02-15T01:30:30;17.35;;;7.47;;
72087;SDS011;59961;50.232;8.616;2023-02-15T01:32:55;12.47;;;5.30;;
72087;SDS011;59961;50.232;8.616;2023-02-15T01:35:21;18.33;;;8.57;;
72087;SDS011;59961;50.232;8.616;2023-02-15T01:37:46;20.65;;;8.70;;
72087;SDS011;59961;50.232;8.616;2023-02-15T01:40:12;24.83;;;10.97;;
72087;SDS011;59961;50.232;8.616;2023-02-15T01:42:38;21.67;;;9.20;;
72087;SDS011;59961;50.232;8.616;2023-02-15T01:45:04;22.20;;;9.30;;
72087;SDS011;59961;50.232;8.616;2023-02-15T01:47:43;9.27;;;3.80;;
72087;SDS011;59961;50.232;8.616;2023-02-15T01:50:16;18.93;;;8.27;;
72087;SDS011;59961;50.232;8.616;2023-02-15T01:52:46;24.02;;;9.55;;
72087;SDS011;59961;50.232;8.616;2023-02-15T01:55:12;23.33;;;9.25;;
72087;SDS011;59961;50.232;8.616;2023-02-15T01:57:38;21.35;;;8.85;;
72087;SDS011;59961;50.232;8.616;2023-02-15T02:00:04;22.87;;;9.27;;
72087;SDS011;59961;50.232;8.616;2023-02-15T02:02:30;20.60;;;8.63;;
72087;SDS011;59961;50.232;8.616;2023-02-15T02:04:59;17.87;;;7.13;;
72087;SDS011;59961;50.232;8.616;2023-02-15T02:07:27;23.20;;;9.63;;
72087;SDS011;59961;50.232;8.616;2023-02-15T02:09:53;22.52;;;9.45;;
72087;SDS011;59961;50.232;8.616;2023-02-15T02:12:18;23.77;;;9.70;;
72087;SDS011;59961;50.232;8.616;2023-02-15T02:14:45;20.45;;;9.02;;
72087;SDS011;59961;50.232;8.616;2023-02-15T02:17:14;22.43;;;9.47;;
72087;SDS011;59961;50.232;8.616;2023-02-15T02:19:46;23.65;;;9.50;;
72087;SDS011;59961;50.232;8.616;2023-02-15T02:33:16;21.30;;;9.10;;
72087;SDS011;59961;50.232;8.616;2023-02-15T02:38:44;22.13;;;9.23;;
72087;SDS011;59961;50.232;8.616;2023-02-15T02:41:10;13.50;;;6.10;;
72087;SDS011;59961;50.232;8.616;2023-02-15T02:43:41;23.80;;;10.07;;
72087;SDS011;59961;50.232;8.616;2023-02-15T02:48:33;28.02;;;11.73;;
72087;SDS011;59961;50.232;8.616;2023-02-15T02:50:59;20.80;;;8.43;;
72087;SDS011;59961;50.232;8.616;2023-02-15T02:53:24;24.33;;;10.20;;
72087;SDS011;59961;50.232;8.616;2023-02-15T02:55:51;21.45;;;9.93;;
72087;SDS011;59961;50.232;8.616;2023-02-15T03:00:48;8.90;;;4.38;;
72087;SDS011;59961;50.232;8.616;2023-02-15T03:03:16;22.40;;;9.60;;
72087;SDS011;59961;50.232;8.616;2023-02-15T03:05:44;22.00;;;9.43;;
72087;SDS011;59961;50.232;8.616;2023-02-15T03:08:10;25.38;;;11.50;;
72087;SDS011;59961;50.232;8.616;2023-02-15T03:10:36;19.70;;;8.33;;
72087;SDS011;59961;50.232;8.616;2023-02-15T03:13:02;23.52;;;10.77;;
72087;SDS011;59961;50.232;8.616;2023-02-15T03:15:35;25.00;;;9.95;;
72087;SDS011;59961;50.232;8.616;2023-02-15T03:18:21;25.98;;;11.63;;
72087;SDS011;59961;50.232;8.616;2023-02-15T03:20:47;25.85;;;10.98;;
72087;SDS011;59961;50.232;8.616;2023-02-15T03:23:14;22.60;;;10.23;;
72087;SDS011;59961;50.232;8.616;2023-02-15T03:25:42;27.10;;;10.80;;
72087;SDS011;59961;50.232;8.616;2023-02-15T03:28:09;27.05;;;11.15;;
72087;SDS011;59961;50.232;8.616;2023-02-15T03:30:36;23.52;;;11.05;;
72087;SDS011;59961;50.232;8.616;2023-02-15T03:33:02;28.07;;;11.57;;
72087;SDS011;59961;50.232;8.616;2023-02-15T03:38:09;26.08;;;11.48;;
72087;SDS011;59961;50.232;8.616;2023-02-15T03:45:49;26.30;;;11.97;;
72087;SDS011;59961;50.232;8.616;2023-02-15T03:48:30;31.02;;;12.43;;
72087;SDS011;59961;50.232;8.616;2023-02-15T03:50:57;32.42;;;12.38;;
72087;SDS011;59961;50.232;8.616;2023-02-15T03:53:42;28.70;;;12.77;;
72087;SDS011;59961;50.232;8.616;2023-02-15T03:56:08;21.02;;;8.77;;
72087;SDS011;59961;50.232;8.616;2023-02-15T03:58:33;30.30;;;12.03;;
72087;SDS011;59961;50.232;8.616;2023-02-15T04:01:21;30.40;;;12.67;;
72087;SDS011;59961;50.232;8.616;2023-02-15T04:04:22;31.60;;;12.25;;
72087;SDS011;59961;50.232;8.616;2023-02-15T04:06:48;33.90;;;12.23;;
72087;SDS011;59961;50.232;8.616;2023-02-15T04:09:13;30.87;;;12.47;;
72087;SDS011;59961;50.232;8.616;2023-02-15T04:11:57;31.65;;;12.18;;
72087;SDS011;59961;50.232;8.616;2023-02-15T04:14:22;31.17;;;12.20;;
72087;SDS011;59961;50.232;8.616;2023-02-15T04:17:06;26.83;;;10.38;;
72087;SDS011;59961;50.232;8.616;2023-02-15T04:19:32;35.33;;;12.90;;
72087;SDS011;59961;50.232;8.616;2023-02-15T04:22:15;30.42;;;11.77;;
72087;SDS011;59961;50.232;8.616;2023-02-15T04:24:59;31.33;;;11.98;;
72087;SDS011;59961;50.232;8.616;2023-02-15T04:27:43;29.47;;;11.93;;
72087;SDS011;59961;50.232;8.616;2023-02-15T04:30:09;31.70;;;12.52;;
72087;SDS011;59961;50.232;8.616;2023-02-15T04:32:34;32.78;;;12.75;;
72087;SDS011;59961;50.232;8.616;2023-02-15T04:35:00;29.97;;;12.07;;
72087;SDS011;59961;50.232;8.616;2023-02-15T04:37:25;30.30;;;11.67;;
72087;SDS011;59961;50.232;8.616;2023-02-15T04:39:50;32.03;;;12.20;;
72087;SDS011;59961;50.232;8.616;2023-02-15T04:42:16;21.87;;;9.33;;
72087;SDS011;59961;50.232;8.616;2023-02-15T04:44:41;22.07;;;8.27;;
72087;SDS011;59961;50.232;8.616;2023-02-15T04:47:06;10.47;;;4.23;;
72087;SDS011;59961;50.232;8.616;2023-02-15T04:49:31;33.50;;;12.93;;
72087;SDS011;59961;50.232;8.616;2023-02-15T04:51:56;32.40;;;12.77;;
72087;SDS011;59961;50.232;8.616;2023-02-15T04:54:21;32.83;;;12.40;;
72087;SDS011;59961;50.232;8.616;2023-02-15T04:56:46;30.63;;;11.00;;
72087;SDS011;59961;50.232;8.616;2023-02-15T04:59:12;32.20;;;11.70;;
72087;SDS011;59961;50.232;8.616;2023-02-15T05:01:37;33.47;;;12.20;;
72087;SDS011;59961;50.232;8.616;2023-02-15T05:04:02;35.53;;;14.05;;
72087;SDS011;59961;50.232;8.616;2023-02-15T05:06:28;12.20;;;4.68;;
72087;SDS011;59961;50.232;8.616;2023-02-15T05:08:53;26.60;;;10.93;;
72087;SDS011;59961;50.232;8.616;2023-02-15T05:11:18;29.77;;;11.75;;
72087;SDS011;59961;50.232;8.616;2023-02-15T05:13:43;36.22;;;12.88;;
72087;SDS011;59961;50.232;8.616;2023-02-15T05:16:08;32.20;;;13.80;;
72087;SDS011;59961;50.232;8.616;2023-02-15T05:18:33;32.63;;;12.80;;
72087;SDS011;59961;50.232;8.616;2023-02-15T05:20:59;26.67;;;10.45;;
72087;SDS011;59961;50.232;8.616;2023-02-15T05:23:24;34.55;;;13.10;;
72087;SDS011;59961;50.232;8.616;2023-02-15T05:25:49;33.77;;;12.90;;
72087;SDS011;59961;50.232;8.616;2023-02-15T05:28:34;35.83;;;12.25;;
72087;SDS011;59961;50.232;8.616;2023-02-15T05:33:27;32.90;;;10.35;;
72087;SDS011;59961;50.232;8.616;2023-02-15T05:35:52;32.43;;;12.63;;
72087;SDS011;59961;50.232;8.616;2023-02-15T05:38:17;30.52;;;11.23;;
72087;SDS011;59961;50.232;8.616;2023-02-15T05:40:42;32.50;;;12.27;;
72087;SDS011;59961;50.232;8.616;2023-02-15T05:43:08;31.83;;;10.83;;
72087;SDS011;59961;50.232;8.616;2023-02-15T05:45:33;33.55;;;10.93;;
72087;SDS011;59961;50.232;8.616;2023-02-15T05:47:58;32.20;;;9.77;;
72087;SDS011;59961;50.232;8.616;2023-02-15T05:50:23;42.57;;;12.20;;
72087;SDS011;59961;50.232;8.616;2023-02-15T05:52:48;39.07;;;11.97;;
72087;SDS011;59961;50.232;8.616;2023-02-15T05:55:14;38.88;;;12.75;;
72087;SDS011;59961;50.232;8.616;2023-02-15T05:57:39;37.70;;;11.90;;
72087;SDS011;59961;50.232;8.616;2023-02-15T06:00:04;33.20;;;10.90;;
72087;SDS011;59961;50.232;8.616;2023-02-15T06:02:33;34.67;;;11.88;;
72087;SDS011;59961;50.232;8.616;2023-02-15T06:04:58;14.60;;;6.97;;
72087;SDS011;59961;50.232;8.616;2023-02-15T06:07:23;25.93;;;8.87;;
72087;SDS011;59961;50.232;8.616;2023-02-15T06:09:48;13.33;;;5.10;;
72087;SDS011;59961;50.232;8.616;2023-02-15T06:12:14;35.55;;;10.95;;
72087;SDS011;59961;50.232;8.616;2023-02-15T06:14:39;37.97;;;12.38;;
72087;SDS011;59961;50.232;8.616;2023-02-15T06:17:04;34.03;;;12.00;;
72087;SDS011;59961;50.232;8.616;2023-02-15T06:19:29;26.20;;;8.98;;
72087;SDS011;59961;50.232;8.616;2023-02-15T06:21:54;44.67;;;13.52;;
72087;SDS011;59961;50.232;8.616;2023-02-15T06:24:19;20.95;;;7.78;;
72087;SDS011;59961;50.232;8.616;2023-02-15T06:26:44;35.20;;;9.90;;
72087;SDS011;59961;50.232;8.616;2023-02-15T06:29:09;40.25;;;12.70;;
72087;SDS011;59961;50.232;8.616;2023-02-15T06:31:35;44.57;;;12.03;;
72087;SDS011;59961;50.232;8.616;2023-02-15T06:34:00;47.00;;;13.15;;
72087;SDS011;59961;50.232;8.616;2023-02-15T06:36:28;44.15;;;13.98;;
72087;SDS011;59961;50.232;8.616;2023-02-15T06:38:53;42.77;;;12.63;;
72087;SDS011;59961;50.232;8.616;2023-02-15T06:41:19;45.97;;;13.53;;
72087;SDS011;59961;50.232;8.616;2023-02-15T06:43:44;43.00;;;13.45;;
72087;SDS011;59961;50.232;8.616;2023-02-15T06:46:09;45.83;;;13.57;;
72087;SDS011;59961;50.232;8.616;2023-02-15T06:48:34;42.72;;;13.50;;
72087;SDS011;59961;50.232;8.616;2023-02-15T06:50:59;44.65;;;13.38;;
72087;SDS011;59961;50.232;8.616;2023-02-15T06:53:24;40.22;;;12.93;;
72087;SDS011;59961;50.232;8.616;2023-02-15T06:55:49;41.80;;;13.70;;
72087;SDS011;59961;50.232;8.616;2023-02-15T06:58:14;35.92;;;11.88;;
72087;SDS011;59961;50.232;8.616;2023-02-15T07:00:41;38.73;;;12.17;;
72087;SDS011;59961;50.232;8.616;2023-02-15T07:03:06;40.92;;;12.35;;
72087;SDS011;59961;50.232;8.616;2023-02-15T07:05:32;41.00;;;12.00;;
72087;SDS011;59961;50.232;8.616;2023-02-15T07:07:58;36.13;;;12.88;;
72087;SDS011;59961;50.232;8.616;2023-02-15T07:10:23;32.00;;;11.33;;
72087;SDS011;59961;50.232;8.616;2023-02-15T07:12:48;42.10;;;13.20;;
72087;SDS011;59961;50.232;8.616;2023-02-15T07:15:15;39.57;;;11.97;;
72087;SDS011;59961;50.232;8.616;2023-02-15T07:17:40;35.58;;;11.98;;
72087;SDS011;59961;50.232;8.616;2023-02-15T07:20:07;33.63;;;11.83;;
72087;SDS011;59961;50.232;8.616;2023-02-15T07:22:32;33.97;;;11.90;;
72087;SDS011;59961;50.232;8.616;2023-02-15T07:24:58;35.15;;;10.85;;
72087;SDS011;59961;50.232;8.616;2023-02-15T07:27:24;36.43;;;12.27;;
72087;SDS011;59961;50.232;8.616;2023-02-15T07:29:49;33.75;;;11.18;;
72087;SDS011;59961;50.232;8.616;2023-02-15T07:32:14;40.20;;;12.30;;
72087;SDS011;59961;50.232;8.616;2023-02-15T07:34:40;44.75;;;13.13;;
72087;SDS011;59961;50.232;8.616;2023-02-15T07:37:05;39.00;;;12.67;;
72087;SDS011;59961;50.232;8.616;2023-02-15T07:39:30;41.33;;;12.50;;
72087;SDS011;59961;50.232;8.616;2023-02-15T07:41:55;31.63;;;11.45;;
72087;SDS011;59961;50.232;8.616;2023-02-15T07:44:20;39.05;;;12.60;;
72087;SDS011;59961;50.232;8.616;2023-02-15T07:46:45;40.57;;;11.30;;
72087;SDS011;59961;50.232;8.616;2023-02-15T07:49:10;38.05;;;11.45;;
72087;SDS011;59961;50.232;8.616;2023-02-15T07:51:36;42.77;;;11.77;;
72087;SDS011;59961;50.232;8.616;2023-02-15T07:54:01;42.97;;;12.97;;
72087;SDS011;59961;50.232;8.616;2023-02-15T07:56:26;45.27;;;13.73;;
72087;SDS011;59961;50.232;8.616;2023-02-15T07:58:51;41.87;;;12.40;;
72087;SDS011;59961;50.232;8.616;2023-02-15T08:01:17;39.93;;;13.33;;
72087;SDS011;59961;50.232;8.616;2023-02-15T08:03:43;43.15;;;13.20;;
72087;SDS011;59961;50.232;8.616;2023-02-15T08:06:08;39.77;;;11.87;;
72087;SDS011;59961;50.232;8.616;2023-02-15T08:08:33;39.83;;;13.70;;
72087;SDS011;59961;50.232;8.616;2023-02-15T08:13:46;36.13;;;11.87;;
72087;SDS011;59961;50.232;8.616;2023-02-15T08:16:22;44.65;;;14.02;;
72087;SDS011;59961;50.232;8.616;2023-02-15T08:18:47;39.35;;;12.60;;
72087;SDS011;59961;50.232;8.616;2023-02-15T08:21:13;39.40;;;12.10;;
72087;SDS011;59961;50.232;8.616;2023-02-15T08:23:38;37.20;;;13.07;;
72087;SDS011;59961;50.232;8.616;2023-02-15T08:26:03;36.03;;;12.32;;
72087;SDS011;59961;50.232;8.616;2023-02-15T08:28:29;38.08;;;12.18;;
72087;SDS011;59961;50.232;8.616;2023-02-15T08:30:54;40.55;;;12.95;;
72087;SDS011;59961;50.232;8.616;2023-02-15T08:33:19;29.70;;;11.00;;
72087;SDS011;59961;50.232;8.616;2023-02-15T08:35:44;28.27;;;9.48;;
72087;SDS011;59961;50.232;8.616;2023-02-15T08:38:10;27.95;;;10.18;;
72087;SDS011;59961;50.232;8.616;2023-02-15T08:40:35;30.57;;;10.00;;
72087;SDS011;59961;50.232;8.616;2023-02-15T08:43:02;32.70;;;10.73;;
72087;SDS011;59961;50.232;8.616;2023-02-15T08:45:27;30.40;;;10.52;;
72087;SDS011;59961;50.232;8.616;2023-02-15T08:47:53;33.95;;;10.95;;
72087;SDS011;59961;50.232;8.616;2023-02-15T08:50:18;26.17;;;9.63;;
72087;SDS011;59961;50.232;8.616;2023-02-15T08:52:43;27.58;;;9.63;;
72087;SDS011;59961;50.232;8.616;2023-02-15T08:55:08;30.50;;;10.65;;
72087;SDS011;59961;50.232;8.616;2023-02-15T08:57:33;33.03;;;10.73;;
72087;SDS011;59961;50.232;8.616;2023-02-15T08:59:58;27.40;;;10.70;;
72087;SDS011;59961;50.232;8.616;2023-02-15T09:02:24;28.23;;;10.57;;
72087;SDS011;59961;50.232;8.616;2023-02-15T09:04:49;28.85;;;10.90;;
72087;SDS011;59961;50.232;8.616;2023-02-15T09:07:14;28.92;;;10.40;;
72087;SDS011;59961;50.232;8.616;2023-02-15T09:09:39;31.50;;;10.60;;
72087;SDS011;59961;50.232;8.616;2023-02-15T09:12:04;25.33;;;9.90;;
72087;SDS011;59961;50.232;8.616;2023-02-15T09:14:30;25.87;;;10.20;;
72087;SDS011;59961;50.232;8.616;2023-02-15T09:16:55;27.13;;;10.93;;
72087;SDS011;59961;50.232;8.616;2023-02-15T09:19:21;27.73;;;11.03;;
72087;SDS011;59961;50.232;8.616;2023-02-15T09:21:46;29.55;;;10.38;;
72087;SDS011;59961;50.232;8.616;2023-02-15T09:24:13;25.27;;;9.73;;
72087;SDS011;59961;50.232;8.616;2023-02-15T09:26:40;21.98;;;9.15;;
72087;SDS011;59961;50.232;8.616;2023-02-15T09:29:05;22.00;;;8.53;;
72087;SDS011;59961;50.232;8.616;2023-02-15T09:31:32;22.75;;;9.15;;
72087;SDS011;59961;50.232;8.616;2023-02-15T09:33:58;25.27;;;10.07;;
72087;SDS011;59961;50.232;8.616;2023-02-15T09:36:30;22.23;;;8.95;;
72087;SDS011;59961;50.232;8.616;2023-02-15T09:48:43;19.17;;;8.23;;
72087;SDS011;59961;50.232;8.616;2023-02-15T09:51:26;20.38;;;7.88;;
72087;SDS011;59961;50.232;8.616;2023-02-15T09:56:32;25.90;;;7.93;;
72087;SDS011;59961;50.232;8.616;2023-02-15T10:06:44;21.70;;;8.98;;
72087;SDS011;59961;50.232;8.616;2023-02-15T10:19:59;20.95;;;9.27;;
72087;SDS011;59961;50.232;8.616;2023-02-15T10:22:40;25.63;;;9.40;;
72087;SDS011;59961;50.232;8.616;2023-02-15T10:27:49;26.90;;;9.75;;
72087;SDS011;59961;50.232;8.616;2023-02-15T10:30:15;22.80;;;8.73;;
72087;SDS011;59961;50.232;8.616;2023-02-15T10:32:48;24.73;;;9.75;;
72087;SDS011;59961;50.232;8.616;2023-02-15T10:35:40;23.48;;;9.93;;
72087;SDS011;59961;50.232;8.616;2023-02-15T10:38:10;22.43;;;8.80;;
72087;SDS011;59961;50.232;8.616;2023-02-15T10:40:46;23.27;;;9.32;;
72087;SDS011;59961;50.232;8.616;2023-02-15T10:43:23;23.50;;;10.18;;
72087;SDS011;59961;50.232;8.616;2023-02-15T10:48:35;21.42;;;9.90;;
72087;SDS011;59961;50.232;8.616;2023-02-15T10:51:03;20.87;;;9.03;;
72087;SDS011;59961;50.232;8.616;2023-02-15T10:56:07;23.98;;;8.70;;
72087;SDS011;59961;50.232;8.616;2023-02-15T11:01:06;25.65;;;10.77;;
72087;SDS011;59961;50.232;8.616;2023-02-15T11:06:05;23.77;;;9.93;;
72087;SDS011;59961;50.232;8.616;2023-02-15T11:08:32;23.92;;;9.82;;
72087;SDS011;59961;50.232;8.616;2023-02-15T11:11:00;24.55;;;9.10;;
72087;SDS011;59961;50.232;8.616;2023-02-15T11:13:27;26.23;;;9.60;;
72087;SDS011;59961;50.232;8.616;2023-02-15T11:15:58;28.07;;;9.33;;
72087;SDS011;59961;50.232;8.616;2023-02-15T11:18:32;18.83;;;8.07;;
72087;SDS011;59961;50.232;8.616;2023-02-15T11:23:43;20.98;;;8.05;;
72087;SDS011;59961;50.232;8.616;2023-02-15T11:26:13;20.52;;;7.90;;
72087;SDS011;59961;50.232;8.616;2023-02-15T11:28:42;23.23;;;9.37;;
72087;SDS011;59961;50.232;8.616;2023-02-15T11:31:15;22.60;;;8.10;;
72087;SDS011;59961;50.232;8.616;2023-02-15T11:33:42;21.50;;;8.30;;
72087;SDS011;59961;50.232;8.616;2023-02-15T11:36:23;22.02;;;9.18;;
72087;SDS011;59961;50.232;8.616;2023-02-15T11:38:51;22.17;;;8.40;;
72087;SDS011;59961;50.232;8.616;2023-02-15T11:41:18;19.27;;;8.17;;
72087;SDS011;59961;50.232;8.616;2023-02-15T11:43:49;21.35;;;7.72;;
72087;SDS011;59961;50.232;8.616;2023-02-15T11:46:16;18.30;;;7.85;;
72087;SDS011;59961;50.232;8.616;2023-02-15T11:48:43;18.73;;;7.00;;
72087;SDS011;59961;50.232;8.616;2023-02-15T11:51:09;21.97;;;8.07;;
72087;SDS011;59961;50.232;8.616;2023-02-15T11:53:37;19.83;;;8.00;;
72087;SDS011;59961;50.232;8.616;2023-02-15T11:56:03;19.47;;;7.47;;
72087;SDS011;59961;50.232;8.616;2023-02-15T11:58:39;23.50;;;7.90;;
72087;SDS011;59961;50.232;8.616;2023-02-15T12:01:14;17.52;;;7.30;;
72087;SDS011;59961;50.232;8.616;2023-02-15T12:06:05;19.67;;;7.77;;
72087;SDS011;59961;50.232;8.616;2023-02-15T12:08:40;19.60;;;7.70;;
72087;SDS011;59961;50.232;8.616;2023-02-15T12:11:11;20.33;;;7.37;;
72087;SDS011;59961;50.232;8.616;2023-02-15T12:13:53;21.80;;;8.07;;
72087;SDS011;59961;50.232;8.616;2023-02-15T12:16:18;21.95;;;8.25;;
72087;SDS011;59961;50.232;8.616;2023-02-15T12:18:43;22.40;;;8.87;;
72087;SDS011;59961;50.232;8.616;2023-02-15T12:21:10;22.95;;;9.43;;
72087;SDS011;59961;50.232;8.616;2023-02-15T12:23:47;24.92;;;8.75;;
72087;SDS011;59961;50.232;8.616;2023-02-15T12:26:13;22.17;;;9.53;;
72087;SDS011;59961;50.232;8.616;2023-02-15T12:28:42;22.05;;;8.65;;
72087;SDS011;59961;50.232;8.616;2023-02-15T12:33:48;22.92;;;9.30;;
72087;SDS011;59961;50.232;8.616;2023-02-15T12:36:19;23.60;;;9.87;;
72087;SDS011;59961;50.232;8.616;2023-02-15T12:39:04;21.60;;;8.88;;
72087;SDS011;59961;50.232;8.616;2023-02-15T12:41:30;21.30;;;8.85;;
72087;SDS011;59961;50.232;8.616;2023-02-15T12:44:02;21.57;;;9.07;;
72087;SDS011;59961;50.232;8.616;2023-02-15T12:46:28;22.98;;;9.20;;
72087;SDS011;59961;50.232;8.616;2023-02-15T12:51:44;22.75;;;9.18;;
72087;SDS011;59961;50.232;8.616;2023-02-15T12:54:17;19.73;;;8.67;;
72087;SDS011;59961;50.232;8.616;2023-02-15T12:56:42;23.05;;;8.80;;
72087;SDS011;59961;50.232;8.616;2023-02-15T12:59:12;24.00;;;9.00;;
72087;SDS011;59961;50.232;8.616;2023-02-15T13:01:37;23.40;;;10.18;;
72087;SDS011;59961;50.232;8.616;2023-02-15T13:04:04;24.23;;;9.67;;
72087;SDS011;59961;50.232;8.616;2023-02-15T13:06:30;22.65;;;8.55;;
72087;SDS011;59961;50.232;8.616;2023-02-15T13:09:05;27.17;;;10.15;;
72087;SDS011;59961;50.232;8.616;2023-02-15T13:11:31;23.83;;;9.75;;
72087;SDS011;59961;50.232;8.616;2023-02-15T13:14:18;24.90;;;9.47;;
72087;SDS011;59961;50.232;8.616;2023-02-15T13:16:44;29.13;;;10.27;;
72087;SDS011;59961;50.232;8.616;2023-02-15T13:19:11;29.25;;;10.45;;
72087;SDS011;59961;50.232;8.616;2023-02-15T13:21:38;26.75;;;10.73;;
72087;SDS011;59961;50.232;8.616;2023-02-15T13:24:05;28.58;;;11.18;;
72087;SDS011;59961;50.232;8.616;2023-02-15T13:26:31;24.17;;;9.87;;
72087;SDS011;59961;50.232;8.616;2023-02-15T13:28:58;28.35;;;10.30;;
72087;SDS011;59961;50.232;8.616;2023-02-15T13:31:26;31.33;;;10.73;;
72087;SDS011;59961;50.232;8.616;2023-02-15T13:36:29;27.38;;;10.73;;
72087;SDS011;59961;50.232;8.616;2023-02-15T13:41:30;28.73;;;10.40;;
72087;SDS011;59961;50.232;8.616;2023-02-15T13:44:04;29.05;;;11.25;;
72087;SDS011;59961;50.232;8.616;2023-02-15T13:46:36;30.30;;;11.13;;
72087;SDS011;59961;50.232;8.616;2023-02-15T13:54:18;28.77;;;10.85;;
72087;SDS011;59961;50.232;8.616;2023-02-15T14:01:47;29.58;;;11.88;;
72087;SDS011;59961;50.232;8.616;2023-02-15T14:10:02;31.88;;;12.23;;
72087;SDS011;59961;50.232;8.616;2023-02-15T14:22:51;30.97;;;12.97;;
72087;SDS011;59961;50.232;8.616;2023-02-15T14:28:12;33.47;;;13.50;;
72087;SDS011;59961;50.232;8.616;2023-02-15T14:30:40;30.08;;;11.77;;
72087;SDS011;59961;50.232;8.616;2023-02-15T14:35:49;30.47;;;12.00;;
72087;SDS011;59961;50.232;8.616;2023-02-15T14:38:31;30.67;;;11.10;;
72087;SDS011;59961;50.232;8.616;2023-02-15T14:46:21;32.38;;;12.68;;
72087;SDS011;59961;50.232;8.616;2023-02-15T14:48:51;27.52;;;11.20;;
72087;SDS011;59961;50.232;8.616;2023-02-15T14:54:01;35.77;;;13.03;;
72087;SDS011;59961;50.232;8.616;2023-02-15T14:56:28;32.70;;;12.48;;
72087;SDS011;59961;50.232;8.616;2023-02-15T15:01:33;37.72;;;14.32;;
72087;SDS011;59961;50.232;8.616;2023-02-15T15:04:01;31.65;;;13.25;;
72087;SDS011;59961;50.232;8.616;2023-02-15T15:06:29;32.05;;;12.23;;
72087;SDS011;59961;50.232;8.616;2023-02-15T15:08:57;32.90;;;12.40;;
72087;SDS011;59961;50.232;8.616;2023-02-15T15:13:59;32.78;;;12.07;;
72087;SDS011;59961;50.232;8.616;2023-02-15T15:16:28;30.17;;;12.00;;
72087;SDS011;59961;50.232;8.616;2023-02-15T15:18:54;28.65;;;12.52;;
72087;SDS011;59961;50.232;8.616;2023-02-15T15:24:05;29.20;;;11.05;;
72087;SDS011;59961;50.232;8.616;2023-02-15T15:26:31;29.10;;;12.03;;
72087;SDS011;59961;50.232;8.616;2023-02-15T15:29:01;31.25;;;11.65;;
72087;SDS011;59961;50.232;8.616;2023-02-15T15:31:31;31.83;;;11.90;;
72087;SDS011;59961;50.232;8.616;2023-02-15T15:36:52;33.13;;;12.02;;
72087;SDS011;59961;50.232;8.616;2023-02-15T15:41:48;37.28;;;12.07;;
72087;SDS011;59961;50.232;8.616;2023-02-15T15:44:30;32.57;;;11.97;;
72087;SDS011;59961;50.232;8.616;2023-02-15T15:49:47;30.63;;;10.93;;
72087;SDS011;59961;50.232;8.616;2023-02-15T15:52:16;33.50;;;11.82;;
72087;SDS011;59961;50.232;8.616;2023-02-15T15:54:41;35.40;;;12.65;;
72087;SDS011;59961;50.232;8.616;2023-02-15T15:57:14;36.30;;;12.50;;
72087;SDS011;59961;50.232;8.616;2023-02-15T15:59:43;34.35;;;12.73;;
72087;SDS011;59961;50.232;8.616;2023-02-15T16:02:12;37.72;;;12.88;;
72087;SDS011;59961;50.232;8.616;2023-02-15T16:04:38;34.38;;;13.05;;
72087;SDS011;59961;50.232;8.616;2023-02-15T16:07:14;41.22;;;13.95;;
72087;SDS011;59961;50.232;8.616;2023-02-15T16:09:39;36.17;;;13.35;;
72087;SDS011;59961;50.232;8.616;2023-02-15T16:12:04;33.47;;;12.97;;
72087;SDS011;59961;50.232;8.616;2023-02-15T16:14:39;34.30;;;12.70;;
72087;SDS011;59961;50.232;8.616;2023-02-15T16:17:05;33.28;;;13.27;;
72087;SDS011;59961;50.232;8.616;2023-02-15T16:19:32;35.95;;;14.40;;
72087;SDS011;59961;50.232;8.616;2023-02-15T16:21:58;33.67;;;13.98;;
72087;SDS011;59961;50.232;8.616;2023-02-15T16:29:34;36.70;;;13.87;;
72087;SDS011;59961;50.232;8.616;2023-02-15T16:32:00;33.90;;;13.70;;
72087;SDS011;59961;50.232;8.616;2023-02-15T16:34:26;34.47;;;14.00;;
72087;SDS011;59961;50.232;8.616;2023-02-15T16:37:11;31.70;;;13.25;;
72087;SDS011;59961;50.232;8.616;2023-02-15T16:39:37;32.88;;;12.77;;
72087;SDS011;59961;50.232;8.616;2023-02-15T16:42:05;34.60;;;13.35;;
72087;SDS011;59961;50.232;8.616;2023-02-15T16:44:30;36.03;;;13.93;;
72087;SDS011;59961;50.232;8.616;2023-02-15T16:46:57;31.38;;;11.75;;
72087;SDS011;59961;50.232;8.616;2023-02-15T16:49:23;30.03;;;12.57;;
72087;SDS011;59961;50.232;8.616;2023-02-15T16:52:11;34.37;;;12.37;;
72087;SDS011;59961;50.232;8.616;2023-02-15T16:54:35;34.67;;;14.00;;
72087;SDS011;59961;50.232;8.616;2023-02-15T16:57:01;32.87;;;12.53;;
72087;SDS011;59961;50.232;8.616;2023-02-15T17:01:52;35.83;;;14.27;;
72087;SDS011;59961;50.232;8.616;2023-02-15T17:04:26;41.30;;;14.00;;